createdAt,value
2022-12-25T00:00:10.473Z,1012.93
2022-12-25T00:01:09.465Z,1012.98
2022-12-25T00:02:10.449Z,1012.96
2022-12-25T00:03:08.368Z,1012.89
2022-12-25T00:04:08.610Z,1012.90
2022-12-25T00:05:09.702Z,1012.87
2022-12-25T00:06:08.534Z,1012.89
2022-12-25T00:07:08.265Z,1012.86
2022-12-25T00:08:28.543Z,1012.82
2022-12-25T00:09:08.270Z,1012.84
2022-12-25T00:10:09.169Z,1012.82
2022-12-25T00:11:10.252Z,1012.76
2022-12-25T00:12:08.078Z,1012.77
2022-12-25T00:13:08.313Z,1012.74
2022-12-25T00:14:08.085Z,1012.79
2022-12-25T00:15:08.322Z,1012.85
2022-12-25T00:16:08.181Z,1012.83
2022-12-25T00:17:08.354Z,1012.84
2022-12-25T00:18:28.161Z,1012.85
2022-12-25T00:19:08.389Z,1012.86
2022-12-25T00:20:08.158Z,1012.88
2022-12-25T00:21:08.410Z,1012.88
2022-12-25T00:22:08.149Z,1012.87
2022-12-25T00:23:09.358Z,1012.86
2022-12-25T00:24:08.141Z,1012.86
2022-12-25T00:25:07.915Z,1012.84
2022-12-25T00:26:08.409Z,1012.88
2022-12-25T00:27:07.932Z,1012.87
2022-12-25T00:28:28.169Z,1012.85
2022-12-25T00:29:08.868Z,1012.85
2022-12-25T00:30:08.186Z,1012.80
2022-12-25T00:31:07.969Z,1012.84
2022-12-25T00:32:08.186Z,1012.85
2022-12-25T00:33:08.868Z,1012.78
2022-12-25T00:34:08.176Z,1012.78
2022-12-25T00:35:07.930Z,1012.78
2022-12-25T00:36:09.099Z,1012.80
2022-12-25T00:37:07.909Z,1012.79
2022-12-25T00:38:28.303Z,1012.80
2022-12-25T00:39:08.867Z,1012.82
2022-12-25T00:40:08.208Z,1012.82
2022-12-25T00:41:07.964Z,1012.82
2022-12-25T00:42:08.203Z,1012.81
2022-12-25T00:43:08.073Z,1012.79
2022-12-25T00:44:09.169Z,1012.78
2022-12-25T00:45:07.980Z,1012.78
2022-12-25T00:46:07.767Z,1012.72
2022-12-25T00:47:08.025Z,1012.76
2022-12-25T00:48:29.201Z,1012.74
2022-12-25T00:49:08.002Z,1012.74
2022-12-25T00:50:07.729Z,1012.77
2022-12-25T00:51:07.986Z,1012.73
2022-12-25T00:52:07.728Z,1012.79
2022-12-25T00:53:08.955Z,1012.73
2022-12-25T00:54:07.759Z,1012.72
2022-12-25T00:55:07.985Z,1012.67
2022-12-25T00:56:09.177Z,1012.64
2022-12-25T00:57:08.030Z,1012.65
2022-12-25T00:58:27.746Z,1012.63
2022-12-25T00:59:09.439Z,1012.61
2022-12-25T01:00:07.749Z,1012.64
2022-12-25T01:01:08.048Z,1012.69
2022-12-25T01:02:09.838Z,1012.63
2022-12-25T01:03:08.083Z,1012.64
2022-12-25T01:04:07.729Z,1012.59
2022-12-25T01:05:08.079Z,1012.64
2022-12-25T01:06:07.742Z,1012.61
2022-12-25T01:07:07.512Z,1012.58
2022-12-25T01:08:27.779Z,1012.54
2022-12-25T01:09:07.519Z,1012.52
2022-12-25T01:10:07.788Z,1012.52
2022-12-25T01:11:09.466Z,1012.51
2022-12-25T01:12:07.795Z,1012.54
2022-12-25T01:13:07.605Z,1012.59
2022-12-25T01:14:09.712Z,1012.57
2022-12-25T01:15:07.533Z,1012.57
2022-12-25T01:16:07.856Z,1012.56
2022-12-25T01:17:07.563Z,1012.50
2022-12-25T01:18:27.822Z,1012.51
2022-12-25T01:19:07.568Z,1012.50
2022-12-25T01:20:07.808Z,1012.48
2022-12-25T01:21:07.586Z,1012.47
2022-12-25T01:22:07.323Z,1012.50
2022-12-25T01:23:07.584Z,1012.56
2022-12-25T01:24:07.755Z,1012.56
2022-12-25T01:25:09.587Z,1012.49
2022-12-25T01:26:07.341Z,1012.50
2022-12-25T01:27:07.589Z,1012.55
2022-12-25T01:28:27.900Z,1012.56
2022-12-25T01:29:07.612Z,1012.56
2022-12-25T01:30:07.353Z,1012.65
2022-12-25T01:31:07.728Z,1012.61
2022-12-25T01:32:07.402Z,1012.68
2022-12-25T01:33:08.576Z,1012.70
2022-12-25T01:34:07.373Z,1012.72
2022-12-25T01:35:07.659Z,1012.80
2022-12-25T01:36:07.381Z,1012.80
2022-12-25T01:37:07.629Z,1012.74
2022-12-25T01:38:27.382Z,1012.66
2022-12-25T01:39:07.125Z,1012.63
2022-12-25T01:40:07.367Z,1012.65
2022-12-25T01:41:07.130Z,1012.76
2022-12-25T01:42:07.384Z,1012.70
2022-12-25T01:43:07.144Z,1012.69
2022-12-25T01:44:07.397Z,1012.67
2022-12-25T01:45:07.175Z,1012.72
2022-12-25T01:46:07.520Z,1012.74
2022-12-25T01:47:07.414Z,1012.76
2022-12-25T01:48:27.461Z,1012.76
2022-12-25T01:49:07.182Z,1012.80
2022-12-25T01:50:07.424Z,1012.79
2022-12-25T01:51:07.170Z,1012.78
2022-12-25T01:52:07.423Z,1012.82
2022-12-25T01:53:07.194Z,1012.83
2022-12-25T01:54:07.453Z,1012.89
2022-12-25T01:55:07.188Z,1012.93
2022-12-25T01:56:07.446Z,1012.95
2022-12-25T01:57:07.204Z,1012.94
2022-12-25T01:58:27.506Z,1012.95
2022-12-25T01:59:07.243Z,1012.96
2022-12-25T02:00:07.093Z,1012.96
2022-12-25T02:01:07.289Z,1012.99
2022-12-25T02:02:07.116Z,1013.02
2022-12-25T02:03:08.521Z,1013.03
2022-12-25T02:04:06.985Z,1013.07
2022-12-25T02:05:07.273Z,1013.07
2022-12-25T02:06:07.007Z,1013.06
2022-12-25T02:07:07.272Z,1013.09
2022-12-25T02:08:27.031Z,1013.09
2022-12-25T02:09:07.317Z,1013.12
2022-12-25T02:10:07.051Z,1013.14
2022-12-25T02:11:06.820Z,1013.13
2022-12-25T02:12:07.077Z,1013.10
2022-12-25T02:13:06.842Z,1013.10
2022-12-25T02:14:07.079Z,1013.10
2022-12-25T02:15:08.768Z,1013.08
2022-12-25T02:16:07.158Z,1013.07
2022-12-25T02:17:06.957Z,1013.06
2022-12-25T02:18:27.086Z,1013.06
2022-12-25T02:19:06.810Z,1012.98
2022-12-25T02:20:07.081Z,1012.96
2022-12-25T02:21:06.815Z,1012.99
2022-12-25T02:22:07.100Z,1012.97
2022-12-25T02:23:06.835Z,1013.01
2022-12-25T02:24:07.078Z,1013.03
2022-12-25T02:25:06.841Z,1013.09
2022-12-25T02:26:07.090Z,1013.10
2022-12-25T02:27:06.867Z,1013.09
2022-12-25T02:28:27.115Z,1013.16
2022-12-25T02:29:06.856Z,1013.14
2022-12-25T02:30:06.619Z,1013.14
2022-12-25T02:31:06.864Z,1013.14
2022-12-25T02:32:06.685Z,1013.13
2022-12-25T02:33:06.944Z,1013.11
2022-12-25T02:34:06.658Z,1013.10
2022-12-25T02:35:06.881Z,1013.09
2022-12-25T02:36:06.622Z,1013.11
2022-12-25T02:37:06.879Z,1013.10
2022-12-25T02:38:26.638Z,1013.10
2022-12-25T02:39:06.875Z,1013.06
2022-12-25T02:40:06.644Z,1013.03
2022-12-25T02:41:06.896Z,1013.03
2022-12-25T02:42:06.658Z,1013.07
2022-12-25T02:43:07.444Z,1013.03
2022-12-25T02:44:06.714Z,1013.04
2022-12-25T02:45:06.916Z,1013.07
2022-12-25T02:46:06.742Z,1013.02
2022-12-25T02:47:06.413Z,1013.03
2022-12-25T02:48:26.683Z,1013.06
2022-12-25T02:49:08.346Z,1013.05
2022-12-25T02:50:06.675Z,1013.00
2022-12-25T02:51:06.444Z,1012.95
2022-12-25T02:52:06.688Z,1012.93
2022-12-25T02:53:06.444Z,1012.92
2022-12-25T02:54:06.754Z,1012.88
2022-12-25T02:55:06.445Z,1012.89
2022-12-25T02:56:06.707Z,1012.87
2022-12-25T02:57:06.464Z,1012.92
2022-12-25T02:58:26.725Z,1012.84
2022-12-25T02:59:06.448Z,1012.87
2022-12-25T03:00:06.710Z,1012.83
2022-12-25T03:01:07.309Z,1012.80
2022-12-25T03:02:06.836Z,1012.76
2022-12-25T03:03:06.560Z,1012.82
2022-12-25T03:04:06.258Z,1012.84
2022-12-25T03:05:06.486Z,1012.82
2022-12-25T03:06:06.250Z,1012.80
2022-12-25T03:07:08.928Z,1012.80
2022-12-25T03:08:26.269Z,1012.75
2022-12-25T03:09:07.943Z,1012.73
2022-12-25T03:10:06.289Z,1012.68
2022-12-25T03:11:07.365Z,1012.68
2022-12-25T03:12:06.291Z,1012.60
2022-12-25T03:13:08.003Z,1012.54
2022-12-25T03:14:07.757Z,1012.54
2022-12-25T03:15:06.629Z,1012.44
2022-12-25T03:16:06.425Z,1012.36
2022-12-25T03:17:06.272Z,1012.33
2022-12-25T03:18:26.494Z,1012.34
2022-12-25T03:19:06.391Z,1012.29
2022-12-25T03:20:06.572Z,1012.32
2022-12-25T03:21:06.354Z,1012.30
2022-12-25T03:22:06.140Z,1012.34
2022-12-25T03:23:07.371Z,1012.33
2022-12-25T03:24:06.206Z,1012.36
2022-12-25T03:25:06.492Z,1012.28
2022-12-25T03:26:06.265Z,1012.22
2022-12-25T03:27:06.081Z,1012.15
2022-12-25T03:28:26.400Z,1012.04
2022-12-25T03:29:08.582Z,1012.01
2022-12-25T03:30:06.433Z,1012.04
2022-12-25T03:31:06.276Z,1012.02
2022-12-25T03:32:06.078Z,1012.06
2022-12-25T03:33:23.294Z,1012.08
2022-12-25T03:34:07.096Z,1012.09
2022-12-25T03:35:06.612Z,1012.14
2022-12-25T03:36:06.196Z,1012.17
2022-12-25T03:37:05.973Z,1012.19
2022-12-25T03:38:26.255Z,1012.22
2022-12-25T03:39:06.026Z,1012.19
2022-12-25T03:40:06.327Z,1012.20
2022-12-25T03:41:06.105Z,1012.20
2022-12-25T03:42:06.400Z,1012.20
2022-12-25T03:43:06.154Z,1012.17
2022-12-25T03:44:05.996Z,1012.15
2022-12-25T03:45:06.254Z,1012.12
2022-12-25T03:46:06.086Z,1012.15
2022-12-25T03:47:06.802Z,1012.10
2022-12-25T03:48:26.155Z,1012.15
2022-12-25T03:49:05.885Z,1012.13
2022-12-25T03:50:06.482Z,1012.19
2022-12-25T03:51:05.955Z,1012.19
2022-12-25T03:52:06.219Z,1012.20
2022-12-25T03:53:05.997Z,1012.15
2022-12-25T03:54:07.213Z,1012.16
2022-12-25T03:55:06.002Z,1012.07
2022-12-25T03:56:05.785Z,1012.01
2022-12-25T03:57:06.041Z,1011.97
2022-12-25T03:58:25.792Z,1011.95
2022-12-25T03:59:06.050Z,1011.91
2022-12-25T04:00:05.804Z,1011.88
2022-12-25T04:01:06.115Z,1011.87
2022-12-25T04:02:06.001Z,1011.82
2022-12-25T04:03:06.127Z,1011.80
2022-12-25T04:04:05.826Z,1011.82
2022-12-25T04:05:06.113Z,1011.84
2022-12-25T04:06:05.821Z,1011.87
2022-12-25T04:07:06.078Z,1011.85
2022-12-25T04:08:25.849Z,1011.82
2022-12-25T04:09:05.594Z,1011.85
2022-12-25T04:10:05.851Z,1011.80
2022-12-25T04:11:05.586Z,1011.83
2022-12-25T04:12:05.897Z,1011.84
2022-12-25T04:13:05.629Z,1011.81
2022-12-25T04:14:05.902Z,1011.86
2022-12-25T04:15:05.622Z,1011.85
2022-12-25T04:16:05.989Z,1011.87
2022-12-25T04:17:05.667Z,1011.88
2022-12-25T04:18:25.932Z,1011.90
2022-12-25T04:19:05.659Z,1011.87
2022-12-25T04:20:05.925Z,1011.87
2022-12-25T04:21:05.675Z,1011.89
2022-12-25T04:22:05.435Z,1011.84
2022-12-25T04:23:05.687Z,1011.84
2022-12-25T04:24:05.442Z,1011.85
2022-12-25T04:25:05.695Z,1011.86
2022-12-25T04:26:05.466Z,1011.86
2022-12-25T04:27:05.700Z,1011.87
2022-12-25T04:28:25.462Z,1011.89
2022-12-25T04:29:05.695Z,1011.86
2022-12-25T04:30:05.449Z,1011.87
2022-12-25T04:31:05.718Z,1011.91
2022-12-25T04:32:05.453Z,1011.93
2022-12-25T04:33:05.682Z,1011.96
2022-12-25T04:34:05.457Z,1012.00
2022-12-25T04:35:05.701Z,1012.05
2022-12-25T04:36:05.464Z,1012.04
2022-12-25T04:37:05.691Z,1012.01
2022-12-25T04:38:25.461Z,1012.04
2022-12-25T04:39:05.692Z,1011.99
2022-12-25T04:40:05.444Z,1011.99
2022-12-25T04:41:05.676Z,1012.03
2022-12-25T04:42:05.438Z,1011.99
2022-12-25T04:43:05.673Z,1011.94
2022-12-25T04:44:05.435Z,1011.97
2022-12-25T04:45:05.707Z,1011.99
2022-12-25T04:46:05.570Z,1012.00
2022-12-25T04:47:10.933Z,1011.98
2022-12-25T04:48:26.467Z,1011.93
2022-12-25T04:49:05.186Z,1011.94
2022-12-25T04:50:05.478Z,1011.93
2022-12-25T04:51:06.634Z,1011.95
2022-12-25T04:52:05.464Z,1011.97
2022-12-25T04:53:05.194Z,1011.99
2022-12-25T04:54:05.481Z,1012.00
2022-12-25T04:55:05.206Z,1011.96
2022-12-25T04:56:05.457Z,1011.99
2022-12-25T04:57:05.230Z,1012.00
2022-12-25T04:58:25.511Z,1011.97
2022-12-25T04:59:05.227Z,1011.96
2022-12-25T05:00:05.508Z,1011.98
2022-12-25T05:01:05.224Z,1011.94
2022-12-25T05:02:05.601Z,1011.90
2022-12-25T05:03:05.271Z,1011.86
2022-12-25T05:04:05.507Z,1011.84
2022-12-25T05:05:05.251Z,1011.84
2022-12-25T05:06:04.982Z,1011.78
2022-12-25T05:07:05.300Z,1011.77
2022-12-25T05:08:25.504Z,1011.73
2022-12-25T05:09:05.225Z,1011.78
2022-12-25T05:10:05.000Z,1011.74
2022-12-25T05:11:05.242Z,1011.68
2022-12-25T05:12:04.991Z,1011.65
2022-12-25T05:13:05.255Z,1011.65
2022-12-25T05:14:05.009Z,1011.63
2022-12-25T05:15:05.240Z,1011.64
2022-12-25T05:16:05.103Z,1011.66
2022-12-25T05:17:05.273Z,1011.73
2022-12-25T05:18:25.029Z,1011.77
2022-12-25T05:19:05.251Z,1011.78
2022-12-25T05:20:05.019Z,1011.73
2022-12-25T05:21:05.281Z,1011.76
2022-12-25T05:22:05.026Z,1011.71
2022-12-25T05:23:05.263Z,1011.71
2022-12-25T05:24:05.020Z,1011.67
2022-12-25T05:25:04.764Z,1011.65
2022-12-25T05:26:05.037Z,1011.62
2022-12-25T05:27:04.765Z,1011.60
2022-12-25T05:28:25.036Z,1011.57
2022-12-25T05:29:04.776Z,1011.49
2022-12-25T05:30:05.033Z,1011.43
2022-12-25T05:31:04.818Z,1011.40
2022-12-25T05:32:05.038Z,1011.38
2022-12-25T05:33:04.755Z,1011.37
2022-12-25T05:34:05.026Z,1011.41
2022-12-25T05:35:04.755Z,1011.39
2022-12-25T05:36:05.014Z,1011.43
2022-12-25T05:37:06.202Z,1011.37
2022-12-25T05:38:25.036Z,1011.38
2022-12-25T05:39:04.792Z,1011.34
2022-12-25T05:40:05.409Z,1011.38
2022-12-25T05:41:04.816Z,1011.34
2022-12-25T05:42:05.092Z,1011.35
2022-12-25T05:43:04.825Z,1011.39
2022-12-25T05:44:04.579Z,1011.35
2022-12-25T05:45:04.823Z,1011.39
2022-12-25T05:46:05.145Z,1011.35
2022-12-25T05:47:04.973Z,1011.38
2022-12-25T05:48:24.608Z,1011.35
2022-12-25T05:49:04.843Z,1011.32
2022-12-25T05:50:04.596Z,1011.32
2022-12-25T05:51:04.819Z,1011.34
2022-12-25T05:52:05.387Z,1011.38
2022-12-25T05:53:08.281Z,1011.43
2022-12-25T05:54:04.601Z,1011.40
2022-12-25T05:55:04.843Z,1011.39
2022-12-25T05:56:04.610Z,1011.40
2022-12-25T05:57:04.848Z,1011.34
2022-12-25T05:58:24.628Z,1011.33
2022-12-25T05:59:04.867Z,1011.28
2022-12-25T06:00:04.609Z,1011.24
2022-12-25T06:01:04.865Z,1011.24
2022-12-25T06:02:04.717Z,1011.21
2022-12-25T06:03:05.014Z,1011.22
2022-12-25T06:04:08.535Z,1011.19
2022-12-25T06:05:05.377Z,1011.15
2022-12-25T06:06:04.644Z,1011.11
2022-12-25T06:07:04.370Z,1011.07
2022-12-25T06:08:26.108Z,1011.09
2022-12-25T06:09:04.408Z,1011.03
2022-12-25T06:10:04.676Z,1011.04
2022-12-25T06:11:04.491Z,1011.04
2022-12-25T06:12:04.660Z,1011.02
2022-12-25T06:13:04.521Z,1011.04
2022-12-25T06:14:04.655Z,1010.99
2022-12-25T06:15:04.432Z,1010.98
2022-12-25T06:16:04.687Z,1010.92
2022-12-25T06:17:04.511Z,1010.91
2022-12-25T06:18:24.662Z,1010.99
2022-12-25T06:19:04.427Z,1010.96
2022-12-25T06:20:04.648Z,1010.96
2022-12-25T06:21:04.475Z,1010.95
2022-12-25T06:22:04.673Z,1010.93
2022-12-25T06:23:06.011Z,1010.93
2022-12-25T06:24:04.232Z,1010.88
2022-12-25T06:25:04.446Z,1010.85
2022-12-25T06:26:04.169Z,1010.86
2022-12-25T06:27:04.438Z,1010.90
2022-12-25T06:28:24.189Z,1011.02
2022-12-25T06:29:04.424Z,1011.06
2022-12-25T06:30:04.173Z,1011.06
2022-12-25T06:31:04.516Z,1011.06
2022-12-25T06:32:04.197Z,1011.08
2022-12-25T06:33:04.427Z,1011.01
2022-12-25T06:34:04.153Z,1010.95
2022-12-25T06:35:04.444Z,1010.91
2022-12-25T06:36:04.297Z,1010.88
2022-12-25T06:37:05.845Z,1010.87
2022-12-25T06:38:24.950Z,1010.88
2022-12-25T06:39:04.431Z,1010.82
2022-12-25T06:40:04.157Z,1010.80
2022-12-25T06:41:04.449Z,1010.79
2022-12-25T06:42:04.304Z,1010.71
2022-12-25T06:43:05.976Z,1010.72
2022-12-25T06:44:04.280Z,1010.72
2022-12-25T06:45:04.051Z,1010.64
2022-12-25T06:46:04.338Z,1010.63
2022-12-25T06:47:04.063Z,1010.58
2022-12-25T06:48:25.383Z,1010.48
2022-12-25T06:49:04.177Z,1010.46
2022-12-25T06:50:03.933Z,1010.43
2022-12-25T06:51:06.197Z,1010.41
2022-12-25T06:52:03.922Z,1010.39
2022-12-25T06:53:04.194Z,1010.40
2022-12-25T06:54:04.128Z,1010.31
2022-12-25T06:55:04.193Z,1010.31
2022-12-25T06:56:03.936Z,1010.32
2022-12-25T06:57:04.217Z,1010.23
2022-12-25T06:58:25.451Z,1010.26
2022-12-25T06:59:04.272Z,1010.33
2022-12-25T07:00:04.045Z,1010.28
2022-12-25T07:01:03.864Z,1010.26
2022-12-25T07:02:04.204Z,1010.27
2022-12-25T07:03:03.916Z,1010.29
2022-12-25T07:04:04.079Z,1010.27
2022-12-25T07:05:03.831Z,1010.24
2022-12-25T07:06:04.087Z,1010.23
2022-12-25T07:07:08.789Z,1010.16
2022-12-25T07:08:25.455Z,1010.14
2022-12-25T07:09:03.887Z,1010.16
2022-12-25T07:10:04.113Z,1010.16
2022-12-25T07:11:03.882Z,1010.10
2022-12-25T07:12:04.153Z,1010.10
2022-12-25T07:13:05.314Z,1010.14
2022-12-25T07:14:05.573Z,1010.23
2022-12-25T07:15:03.891Z,1010.30
2022-12-25T07:16:04.634Z,1010.32
2022-12-25T07:17:03.907Z,1010.30
2022-12-25T07:18:25.208Z,1010.33
2022-12-25T07:19:04.131Z,1010.34
2022-12-25T07:20:03.893Z,1010.27
2022-12-25T07:21:04.035Z,1010.26
2022-12-25T07:22:05.220Z,1010.18
2022-12-25T07:23:04.038Z,1010.16
2022-12-25T07:24:03.782Z,1010.20
2022-12-25T07:25:03.545Z,1010.30
2022-12-25T07:26:03.787Z,1010.38
2022-12-25T07:27:03.550Z,1010.44
2022-12-25T07:28:25.308Z,1010.43
2022-12-25T07:29:03.663Z,1010.42
2022-12-25T07:30:03.861Z,1010.45
2022-12-25T07:31:03.610Z,1010.41
2022-12-25T07:32:03.969Z,1010.42
2022-12-25T07:33:03.631Z,1010.39
2022-12-25T07:34:03.878Z,1010.52
2022-12-25T07:35:03.632Z,1010.51
2022-12-25T07:36:03.881Z,1010.45
2022-12-25T07:37:03.633Z,1010.46
2022-12-25T07:38:25.377Z,1010.38
2022-12-25T07:39:03.685Z,1010.39
2022-12-25T07:40:03.426Z,1010.37
2022-12-25T07:41:03.710Z,1010.43
2022-12-25T07:42:03.453Z,1010.35
2022-12-25T07:43:03.713Z,1010.40
2022-12-25T07:44:03.456Z,1010.41
2022-12-25T07:45:03.741Z,1010.42
2022-12-25T07:46:03.567Z,1010.43
2022-12-25T07:47:03.723Z,1010.42
2022-12-25T07:48:24.484Z,1010.35
2022-12-25T07:49:03.336Z,1010.34
2022-12-25T07:50:03.593Z,1010.30
2022-12-25T07:51:03.409Z,1010.24
2022-12-25T07:52:03.973Z,1010.25
2022-12-25T07:53:03.398Z,1010.17
2022-12-25T07:54:04.605Z,1010.25
2022-12-25T07:55:04.859Z,1010.26
2022-12-25T07:56:04.060Z,1010.31
2022-12-25T07:57:03.430Z,1010.42
2022-12-25T07:58:25.182Z,1010.45
2022-12-25T07:59:03.463Z,1010.50
2022-12-25T08:00:03.221Z,1010.58
2022-12-25T08:01:03.680Z,1010.68
2022-12-25T08:02:03.472Z,1010.74
2022-12-25T08:03:03.766Z,1010.85
2022-12-25T08:04:03.347Z,1010.93
2022-12-25T08:05:03.528Z,1010.93
2022-12-25T08:06:03.262Z,1010.92
2022-12-25T08:07:03.524Z,1010.86
2022-12-25T08:08:24.748Z,1010.83
2022-12-25T08:09:03.587Z,1010.84
2022-12-25T08:10:03.335Z,1010.84
2022-12-25T08:11:03.063Z,1010.83
2022-12-25T08:12:03.288Z,1010.91
2022-12-25T08:13:04.719Z,1010.94
2022-12-25T08:14:03.305Z,1010.98
2022-12-25T08:15:03.071Z,1011.03
2022-12-25T08:16:03.321Z,1011.07
2022-12-25T08:17:03.116Z,1011.13
2022-12-25T08:18:29.825Z,1011.10
2022-12-25T08:19:05.569Z,1011.08
2022-12-25T08:20:03.385Z,1011.05
2022-12-25T08:21:03.114Z,1011.07
2022-12-25T08:22:03.430Z,1011.07
2022-12-25T08:23:03.122Z,1011.04
2022-12-25T08:24:03.374Z,1010.97
2022-12-25T08:25:03.113Z,1010.94
2022-12-25T08:26:05.326Z,1010.92
2022-12-25T08:27:03.130Z,1010.98
2022-12-25T08:28:24.022Z,1011.01
2022-12-25T08:29:03.213Z,1010.97
2022-12-25T08:30:02.942Z,1010.89
2022-12-25T08:31:03.241Z,1010.84
2022-12-25T08:32:02.938Z,1010.84
2022-12-25T08:33:03.214Z,1010.88
2022-12-25T08:34:03.005Z,1010.92
2022-12-25T08:35:03.201Z,1010.96
2022-12-25T08:36:02.946Z,1010.98
2022-12-25T08:37:03.197Z,1010.98
2022-12-25T08:38:22.973Z,1011.05
2022-12-25T08:39:04.694Z,1011.05
2022-12-25T08:40:03.504Z,1011.10
2022-12-25T08:41:03.405Z,1011.20
2022-12-25T08:42:04.637Z,1011.26
2022-12-25T08:43:03.662Z,1011.32
2022-12-25T08:44:04.238Z,1011.30
2022-12-25T08:45:04.543Z,1011.32
2022-12-25T08:46:03.543Z,1011.35
2022-12-25T08:47:04.603Z,1011.33
2022-12-25T08:48:22.905Z,1011.33
2022-12-25T08:49:04.144Z,1011.32
2022-12-25T08:50:04.405Z,1011.31
2022-12-25T08:51:03.761Z,1011.32
2022-12-25T08:52:03.553Z,1011.31
2022-12-25T08:53:04.382Z,1011.29
2022-12-25T08:54:04.190Z,1011.27
2022-12-25T08:55:04.483Z,1011.18
2022-12-25T08:56:04.322Z,1011.16
2022-12-25T08:57:03.537Z,1011.16
2022-12-25T08:58:22.847Z,1011.13
2022-12-25T08:59:03.160Z,1011.17
2022-12-25T09:00:04.337Z,1011.07
2022-12-25T09:01:03.261Z,1011.01
2022-12-25T09:02:04.522Z,1011.00
2022-12-25T09:03:03.290Z,1010.95
2022-12-25T09:04:03.528Z,1010.91
2022-12-25T09:05:04.316Z,1010.87
2022-12-25T09:06:04.095Z,1010.81
2022-12-25T09:07:04.411Z,1010.75
2022-12-25T09:08:22.740Z,1010.63
2022-12-25T09:09:03.968Z,1010.58
2022-12-25T09:10:03.525Z,1010.50
2022-12-25T09:11:03.559Z,1010.50
2022-12-25T09:12:04.332Z,1010.49
2022-12-25T09:13:04.138Z,1010.51
2022-12-25T09:14:03.153Z,1010.61
2022-12-25T09:15:04.263Z,1010.66
2022-12-25T09:16:03.551Z,1010.82
2022-12-25T09:17:04.301Z,1010.85
2022-12-25T09:18:22.631Z,1010.99
2022-12-25T09:19:03.880Z,1011.02
2022-12-25T09:20:04.178Z,1011.01
2022-12-25T09:21:03.984Z,1011.03
2022-12-25T09:22:03.035Z,1010.96
2022-12-25T09:23:08.491Z,1010.92
2022-12-25T09:24:04.868Z,1010.86
2022-12-25T09:25:04.147Z,1010.93
2022-12-25T09:26:03.911Z,1010.99
2022-12-25T09:27:03.045Z,1010.99
2022-12-25T09:28:22.535Z,1011.03
2022-12-25T09:29:03.780Z,1011.00
2022-12-25T09:30:04.052Z,1010.95
2022-12-25T09:31:03.913Z,1010.78
2022-12-25T09:32:04.149Z,1010.76
2022-12-25T09:33:03.042Z,1010.69
2022-12-25T09:34:03.756Z,1010.64
2022-12-25T09:35:04.097Z,1010.66
2022-12-25T09:36:03.889Z,1010.65
2022-12-25T09:37:03.695Z,1010.68
2022-12-25T09:38:22.516Z,1010.66
2022-12-25T09:39:03.786Z,1010.65
2022-12-25T09:40:03.156Z,1010.62
2022-12-25T09:41:03.866Z,1010.57
2022-12-25T09:42:02.238Z,1010.55
2022-12-25T09:43:02.489Z,1010.63
2022-12-25T09:44:02.227Z,1010.64
2022-12-25T09:45:02.467Z,1010.67
2022-12-25T09:46:02.318Z,1010.66
2022-12-25T09:47:02.491Z,1010.67
2022-12-25T09:48:23.756Z,1010.70
2022-12-25T09:49:03.514Z,1010.69
2022-12-25T09:50:02.512Z,1010.70
2022-12-25T09:51:02.143Z,1010.70
2022-12-25T09:52:02.332Z,1010.65
2022-12-25T09:53:02.096Z,1010.63
2022-12-25T09:54:02.332Z,1010.58
2022-12-25T09:55:02.096Z,1010.56
2022-12-25T09:56:02.346Z,1010.52
2022-12-25T09:57:02.101Z,1010.51
2022-12-25T09:58:23.349Z,1010.45
2022-12-25T09:59:02.148Z,1010.49
2022-12-25T10:00:01.883Z,1010.44
2022-12-25T10:01:02.143Z,1010.39
2022-12-25T10:02:02.531Z,1010.42
2022-12-25T10:03:02.466Z,1010.40
2022-12-25T10:04:01.988Z,1010.38
2022-12-25T10:05:02.149Z,1010.31
2022-12-25T10:06:01.881Z,1010.35
2022-12-25T10:07:02.157Z,1010.28
2022-12-25T10:08:22.581Z,1010.29
2022-12-25T10:09:02.198Z,1010.22
2022-12-25T10:10:02.256Z,1010.26
2022-12-25T10:11:02.210Z,1010.21
2022-12-25T10:12:01.951Z,1010.18
2022-12-25T10:13:02.216Z,1010.22
2022-12-25T10:14:01.985Z,1010.19
2022-12-25T10:15:01.747Z,1010.22
2022-12-25T10:16:02.009Z,1010.29
2022-12-25T10:17:01.743Z,1010.26
2022-12-25T10:18:23.477Z,1010.28
2022-12-25T10:19:01.787Z,1010.24
2022-12-25T10:20:02.098Z,1010.22
2022-12-25T10:21:01.812Z,1010.16
2022-12-25T10:22:02.192Z,1010.11
2022-12-25T10:23:01.824Z,1010.11
2022-12-25T10:24:02.056Z,1010.11
2022-12-25T10:25:01.800Z,1010.17
2022-12-25T10:26:02.057Z,1010.15
2022-12-25T10:27:01.817Z,1010.17
2022-12-25T10:28:23.594Z,1010.12
2022-12-25T10:29:01.872Z,1010.14
2022-12-25T10:30:01.656Z,1010.13
2022-12-25T10:31:01.931Z,1010.10
2022-12-25T10:32:01.685Z,1010.05
2022-12-25T10:33:01.991Z,1010.10
2022-12-25T10:34:01.813Z,1010.12
2022-12-25T10:35:01.992Z,1010.09
2022-12-25T10:36:01.761Z,1010.11
2022-12-25T10:37:02.029Z,1010.15
2022-12-25T10:38:23.259Z,1010.14
2022-12-25T10:39:01.594Z,1010.10
2022-12-25T10:40:01.824Z,1010.08
2022-12-25T10:41:01.558Z,1010.09
2022-12-25T10:42:01.848Z,1010.12
2022-12-25T10:43:01.616Z,1010.07
2022-12-25T10:44:01.849Z,1010.07
2022-12-25T10:45:01.610Z,1010.01
2022-12-25T10:46:01.942Z,1009.99
2022-12-25T10:47:01.624Z,1009.92
2022-12-25T10:48:22.680Z,1009.92
2022-12-25T10:49:01.719Z,1009.92
2022-12-25T10:50:01.501Z,1009.88
2022-12-25T10:51:01.718Z,1009.80
2022-12-25T10:52:01.474Z,1009.72
2022-12-25T10:53:01.753Z,1009.71
2022-12-25T10:54:01.503Z,1009.78
2022-12-25T10:55:01.758Z,1009.66
2022-12-25T10:56:01.525Z,1009.55
2022-12-25T10:57:01.778Z,1009.45
2022-12-25T10:58:21.571Z,1009.46
2022-12-25T10:59:01.286Z,1009.48
2022-12-25T11:00:01.548Z,1009.46
2022-12-25T11:01:01.280Z,1009.45
2022-12-25T11:02:01.615Z,1009.45
2022-12-25T11:03:01.699Z,1009.46
2022-12-25T11:04:01.616Z,1009.50
2022-12-25T11:05:01.300Z,1009.50
2022-12-25T11:06:01.555Z,1009.55
2022-12-25T11:07:01.309Z,1009.55
2022-12-25T11:08:21.572Z,1009.52
2022-12-25T11:09:01.314Z,1009.52
2022-12-25T11:10:05.385Z,1009.56
2022-12-25T11:11:01.305Z,1009.58
2022-12-25T11:12:01.568Z,1009.60
2022-12-25T11:13:01.320Z,1009.59
2022-12-25T11:14:01.598Z,1009.54
2022-12-25T11:15:01.313Z,1009.53
2022-12-25T11:16:01.640Z,1009.49
2022-12-25T11:17:01.307Z,1009.44
2022-12-25T11:18:22.537Z,1009.49
2022-12-25T11:19:01.330Z,1009.43
2022-12-25T11:20:01.091Z,1009.43
2022-12-25T11:21:01.334Z,1009.39
2022-12-25T11:22:01.086Z,1009.36
2022-12-25T11:23:01.334Z,1009.31
2022-12-25T11:24:01.084Z,1009.30
2022-12-25T11:25:01.348Z,1009.31
2022-12-25T11:26:01.092Z,1009.24
2022-12-25T11:27:01.328Z,1009.24
2022-12-25T11:28:21.110Z,1009.29
2022-12-25T11:29:01.348Z,1009.23
2022-12-25T11:30:01.095Z,1009.29
2022-12-25T11:31:01.364Z,1009.32
2022-12-25T11:32:01.102Z,1009.29
2022-12-25T11:33:01.340Z,1009.24
2022-12-25T11:34:01.099Z,1009.17
2022-12-25T11:35:01.341Z,1009.12
2022-12-25T11:36:01.110Z,1009.19
2022-12-25T11:37:01.352Z,1009.18
2022-12-25T11:38:21.130Z,1009.17
2022-12-25T11:39:00.871Z,1009.15
2022-12-25T11:40:01.118Z,1009.14
2022-12-25T11:41:00.868Z,1009.13
2022-12-25T11:42:01.139Z,1009.11
2022-12-25T11:43:07.530Z,1009.10
2022-12-25T11:44:02.147Z,1009.07
2022-12-25T11:45:00.887Z,1009.08
2022-12-25T11:46:01.163Z,1009.07
2022-12-25T11:47:01.018Z,1009.05
2022-12-25T11:48:21.313Z,1009.03
2022-12-25T11:49:00.917Z,1009.10
2022-12-25T11:50:01.398Z,1009.05
2022-12-25T11:51:00.901Z,1009.07
2022-12-25T11:52:01.164Z,1009.03
2022-12-25T11:53:00.897Z,1009.09
2022-12-25T11:54:01.199Z,1009.00
2022-12-25T11:55:00.964Z,1009.02
2022-12-25T11:56:01.184Z,1009.00
2022-12-25T11:57:00.944Z,1008.99
2022-12-25T11:58:21.213Z,1008.94
2022-12-25T11:59:00.938Z,1008.92
2022-12-25T12:00:00.710Z,1008.90
2022-12-25T12:01:00.948Z,1008.92
2022-12-25T12:02:00.814Z,1008.91
2022-12-25T12:03:01.062Z,1008.87
2022-12-25T12:04:00.794Z,1008.84
2022-12-25T12:05:00.947Z,1008.95